createdAt,value
2018-12-29T00:02:17.525Z,15.87
2018-12-29T00:04:58.017Z,14.47
2018-12-29T00:07:38.881Z,16.63
2018-12-29T00:10:20.368Z,15.57
2018-12-29T00:13:00.982Z,16.40
2018-12-29T00:15:42.061Z,16.10
2018-12-29T00:18:22.549Z,16.33
2018-12-29T00:21:03.305Z,15.93
2018-12-29T00:23:46.650Z,16.43
2018-12-29T00:26:27.022Z,15.70
2018-12-29T00:29:07.488Z,15.93
2018-12-29T00:31:48.901Z,14.50
2018-12-29T00:37:44.618Z,15.70
2018-12-29T00:40:25.139Z,16.50
2018-12-29T00:43:06.057Z,16.07
2018-12-29T00:45:50.216Z,15.60
2018-12-29T00:48:31.560Z,15.53
2018-12-29T00:51:12.271Z,15.57
2018-12-29T00:53:53.594Z,14.20
2018-12-29T00:56:34.103Z,17.20
2018-12-29T00:59:14.631Z,15.03
2018-12-29T01:01:55.272Z,15.07
2018-12-29T01:04:36.147Z,14.93
2018-12-29T01:07:17.432Z,14.17
2018-12-29T01:09:58.314Z,15.40
2018-12-29T01:12:39.381Z,15.50
2018-12-29T01:15:20.358Z,14.87
2018-12-29T01:18:01.001Z,14.43
2018-12-29T01:20:42.169Z,15.47
2018-12-29T01:23:23.560Z,13.17
2018-12-29T01:26:04.109Z,16.60
2018-12-29T01:28:44.931Z,15.70
2018-12-29T01:31:25.729Z,15.23
2018-12-29T01:34:06.985Z,14.20
2018-12-29T01:36:48.253Z,16.67
2018-12-29T01:39:30.730Z,15.00
2018-12-29T01:42:11.601Z,15.57
2018-12-29T01:44:52.661Z,15.03
2018-12-29T01:47:33.387Z,15.60
2018-12-29T01:50:14.277Z,16.10
2018-12-29T01:52:55.525Z,15.83
2018-12-29T01:55:36.043Z,16.07
2018-12-29T01:58:16.941Z,16.80
2018-12-29T02:00:57.769Z,16.50
2018-12-29T02:03:38.769Z,15.07
2018-12-29T02:06:19.898Z,15.47
2018-12-29T02:09:00.445Z,14.73
2018-12-29T02:11:39.717Z,15.63
2018-12-29T02:14:27.952Z,15.90
2018-12-29T02:17:16.160Z,15.50
2018-12-29T02:20:04.737Z,16.33
2018-12-29T02:22:53.000Z,15.87
2018-12-29T02:25:41.269Z,16.07
2018-12-29T02:34:32.948Z,16.43
2018-12-29T02:43:01.824Z,15.23
2018-12-29T02:45:42.412Z,15.70
2018-12-29T02:48:23.630Z,15.77
2018-12-29T02:51:04.238Z,14.73
2018-12-29T02:53:44.883Z,14.60
2018-12-29T02:56:25.613Z,14.80
2018-12-29T02:59:06.756Z,14.43
2018-12-29T03:01:47.352Z,13.83
2018-12-29T03:04:27.916Z,14.73
2018-12-29T03:07:08.785Z,13.90
2018-12-29T03:09:49.386Z,14.53
2018-12-29T03:12:29.832Z,17.07
2018-12-29T03:15:10.951Z,15.10
2018-12-29T03:17:52.230Z,15.13
2018-12-29T03:20:32.869Z,15.70
2018-12-29T03:23:13.873Z,16.03
2018-12-29T03:25:54.790Z,16.33
2018-12-29T03:28:35.462Z,17.13
2018-12-29T03:31:16.007Z,15.03
2018-12-29T03:33:57.172Z,14.87
2018-12-29T03:36:37.825Z,15.97
2018-12-29T03:39:18.865Z,15.40
2018-12-29T03:41:59.868Z,15.80
2018-12-29T03:44:40.860Z,15.30
2018-12-29T03:47:22.070Z,16.97
2018-12-29T03:50:03.395Z,16.17
2018-12-29T03:52:43.944Z,16.70
2018-12-29T03:55:24.777Z,16.43
2018-12-29T03:58:05.632Z,16.70
2018-12-29T04:00:46.753Z,16.60
2018-12-29T04:03:26.097Z,17.30
2018-12-29T04:06:14.399Z,17.87
2018-12-29T04:09:21.705Z,15.97
2018-12-29T04:15:39.515Z,15.70
2018-12-29T04:18:27.851Z,16.57
2018-12-29T04:21:16.071Z,16.13
2018-12-29T04:24:04.299Z,14.40
2018-12-29T04:29:46.764Z,14.43
2018-12-29T04:32:34.964Z,15.13
2018-12-29T04:35:23.272Z,16.03
2018-12-29T04:38:11.468Z,14.37
2018-12-29T04:43:53.267Z,16.27
2018-12-29T04:46:41.481Z,15.17
2018-12-29T04:49:29.684Z,14.33
2018-12-29T04:52:17.918Z,14.30
2018-12-29T04:58:13.573Z,14.60
2018-12-29T05:01:01.809Z,15.90
2018-12-29T05:03:42.695Z,15.00
2018-12-29T05:06:23.588Z,14.77
2018-12-29T05:09:05.036Z,15.80
2018-12-29T05:11:45.945Z,15.67
2018-12-29T05:14:27.027Z,16.27
2018-12-29T05:17:07.597Z,14.60
2018-12-29T05:19:47.995Z,15.33
2018-12-29T05:22:28.734Z,14.97
2018-12-29T05:25:09.310Z,14.73
2018-12-29T05:27:50.263Z,15.33
2018-12-29T05:30:31.050Z,14.33
2018-12-29T05:33:12.145Z,14.30
2018-12-29T05:35:53.049Z,13.90
2018-12-29T05:38:33.661Z,14.63
2018-12-29T05:41:14.625Z,14.07
2018-12-29T05:43:55.401Z,13.73
2018-12-29T05:46:36.680Z,14.00
2018-12-29T05:49:17.066Z,13.67
2018-12-29T05:51:58.034Z,14.00
2018-12-29T05:54:38.933Z,13.93
2018-12-29T05:57:19.458Z,14.27
2018-12-29T05:59:58.683Z,13.90
2018-12-29T06:02:46.927Z,16.70
2018-12-29T06:08:42.536Z,13.90
2018-12-29T06:11:30.745Z,14.80
2018-12-29T06:14:18.967Z,13.53
2018-12-29T06:17:07.238Z,14.73
2018-12-29T06:19:55.556Z,12.53
2018-12-29T06:22:43.824Z,13.10
2018-12-29T06:25:32.125Z,12.50
2018-12-29T06:31:27.780Z,11.93
2018-12-29T06:34:16.022Z,13.70
2018-12-29T06:40:11.628Z,12.90
2018-12-29T06:49:02.477Z,13.50
2018-12-29T06:57:40.155Z,13.87
2018-12-29T07:06:30.102Z,14.07
2018-12-29T07:09:18.273Z,13.70
2018-12-29T07:12:18.074Z,14.53
2018-12-29T07:14:56.429Z,14.33
2018-12-29T07:17:44.683Z,13.53
2018-12-29T07:20:32.881Z,17.80
2018-12-29T07:23:21.150Z,15.93
2018-12-29T07:29:16.882Z,14.73
2018-12-29T07:32:05.093Z,14.80
2018-12-29T07:34:53.301Z,14.07
2018-12-29T07:37:41.529Z,13.47
2018-12-29T07:40:29.803Z,14.33
2018-12-29T07:43:18.037Z,14.43
2018-12-29T07:46:06.269Z,15.20
2018-12-29T07:51:53.193Z,14.60
2018-12-29T07:57:27.685Z,14.60
2018-12-29T08:00:08.882Z,16.87
2018-12-29T08:02:49.937Z,16.50
2018-12-29T08:05:32.420Z,14.80
2018-12-29T08:08:13.602Z,15.67
2018-12-29T08:10:54.384Z,16.47
2018-12-29T08:13:35.438Z,15.10
2018-12-29T08:16:16.313Z,15.37
2018-12-29T08:18:57.226Z,16.40
2018-12-29T08:21:37.798Z,15.07
2018-12-29T08:24:18.713Z,14.97
2018-12-29T08:26:59.839Z,15.37
2018-12-29T08:29:40.906Z,15.37
2018-12-29T08:32:21.883Z,15.10
2018-12-29T08:35:02.685Z,14.50
2018-12-29T08:37:43.175Z,16.33
2018-12-29T08:40:23.796Z,15.17
2018-12-29T08:43:04.538Z,16.03
2018-12-29T08:45:45.393Z,16.07
2018-12-29T08:48:26.168Z,15.43
2018-12-29T08:51:06.962Z,14.90
2018-12-29T08:53:47.990Z,16.90
2018-12-29T08:56:29.048Z,15.50
2018-12-29T08:59:09.577Z,17.47
2018-12-29T09:01:50.413Z,16.80
2018-12-29T09:04:31.362Z,16.90
2018-12-29T09:07:11.836Z,16.27
2018-12-29T09:09:52.671Z,18.77
2018-12-29T09:12:33.363Z,15.97
2018-12-29T09:15:14.217Z,17.63
2018-12-29T09:17:55.080Z,16.80
2018-12-29T09:20:36.054Z,16.43
2018-12-29T09:23:17.053Z,16.53
2018-12-29T09:26:00.038Z,15.80
2018-12-29T09:28:40.822Z,15.77
2018-12-29T09:31:22.166Z,14.83
2018-12-29T09:34:03.034Z,17.23
2018-12-29T09:36:44.791Z,16.03
2018-12-29T09:39:25.411Z,16.70
2018-12-29T09:42:06.220Z,17.30
2018-12-29T09:44:46.858Z,17.97
2018-12-29T09:47:27.537Z,15.70
2018-12-29T09:50:08.087Z,16.00
2018-12-29T09:52:49.088Z,16.50
2018-12-29T09:55:29.873Z,17.53
2018-12-29T09:58:10.484Z,16.40
2018-12-29T10:00:51.644Z,15.10
2018-12-29T10:03:32.138Z,17.03
2018-12-29T10:06:12.875Z,16.17
2018-12-29T10:08:53.696Z,15.43
2018-12-29T10:11:34.231Z,17.27
2018-12-29T10:14:14.667Z,16.63
2018-12-29T10:16:55.627Z,16.27
2018-12-29T10:19:36.604Z,16.40
2018-12-29T10:22:17.336Z,17.13
2018-12-29T10:25:00.983Z,17.20
2018-12-29T10:27:41.941Z,16.87
2018-12-29T10:30:22.801Z,17.00
2018-12-29T10:33:03.701Z,15.77
2018-12-29T10:35:44.829Z,15.50
2018-12-29T10:38:25.593Z,15.73
2018-12-29T10:41:06.606Z,16.30
2018-12-29T10:43:47.081Z,16.10
2018-12-29T10:46:28.049Z,14.60
2018-12-29T10:49:08.817Z,14.33
2018-12-29T10:51:50.168Z,16.17
2018-12-29T10:54:30.905Z,16.10
2018-12-29T10:57:11.902Z,15.60
2018-12-29T10:59:52.765Z,14.83
2018-12-29T11:02:33.180Z,17.40
2018-12-29T11:05:14.038Z,15.40
2018-12-29T11:07:55.117Z,15.50
2018-12-29T11:10:36.193Z,15.97
2018-12-29T11:13:17.234Z,15.27
2018-12-29T11:16:00.172Z,16.77
2018-12-29T11:18:40.753Z,15.00
2018-12-29T11:21:21.612Z,17.00
2018-12-29T11:24:02.654Z,16.53
2018-12-29T11:26:43.648Z,16.13
2018-12-29T11:29:24.560Z,14.83
2018-12-29T11:32:05.244Z,16.33
2018-12-29T11:34:46.548Z,15.50
2018-12-29T11:37:27.449Z,15.67
2018-12-29T11:40:08.377Z,15.63
2018-12-29T11:42:49.029Z,16.70
2018-12-29T11:45:30.148Z,16.13
2018-12-29T11:48:11.477Z,16.13
2018-12-29T11:50:51.865Z,16.30
2018-12-29T11:53:33.046Z,15.60
2018-12-29T11:56:13.517Z,15.87
2018-12-29T11:58:54.232Z,15.23
2018-12-29T12:01:35.112Z,14.60
2018-12-29T12:04:15.934Z,14.77
2018-12-29T12:06:56.859Z,17.70
2018-12-29T12:09:37.757Z,14.80
2018-12-29T12:12:18.702Z,15.87
2018-12-29T12:14:59.584Z,15.80
2018-12-29T12:17:40.313Z,16.57
2018-12-29T12:20:20.876Z,16.77
2018-12-29T12:23:01.853Z,15.73
2018-12-29T12:25:42.600Z,16.60
2018-12-29T12:28:23.803Z,15.03
2018-12-29T12:31:04.781Z,16.00
2018-12-29T12:33:44.285Z,15.97
2018-12-29T12:36:32.631Z,16.60
2018-12-29T12:54:04.040Z,15.50
2018-12-29T13:02:46.365Z,16.00
2018-12-29T13:05:27.512Z,17.10
2018-12-29T13:08:08.060Z,16.43
2018-12-29T13:10:49.388Z,16.23
2018-12-29T13:13:30.053Z,15.60
2018-12-29T13:16:11.693Z,15.80
2018-12-29T13:18:52.873Z,16.97
2018-12-29T13:21:34.198Z,15.70
2018-12-29T13:24:14.704Z,14.83
2018-12-29T13:26:55.611Z,16.03
2018-12-29T13:29:36.336Z,15.60
2018-12-29T13:32:17.283Z,15.50
2018-12-29T13:34:58.192Z,21.63
2018-12-29T13:37:39.097Z,17.67
2018-12-29T13:40:19.924Z,16.37
2018-12-29T13:43:00.582Z,16.20
2018-12-29T13:45:41.224Z,16.57
2018-12-29T13:48:22.422Z,17.43
2018-12-29T13:51:04.022Z,16.63
2018-12-29T13:53:45.098Z,16.97
2018-12-29T13:56:26.020Z,16.40
2018-12-29T13:59:06.934Z,16.20
2018-12-29T14:01:47.911Z,15.00
2018-12-29T14:04:29.623Z,15.93
2018-12-29T14:07:10.473Z,16.20
2018-12-29T14:09:51.905Z,16.00
2018-12-29T14:12:33.162Z,16.63
2018-12-29T14:15:13.772Z,18.53
2018-12-29T14:17:53.193Z,17.80
2018-12-29T14:38:19.732Z,15.57
2018-12-29T14:44:17.279Z,16.60
2018-12-29T14:46:53.056Z,15.90
2018-12-29T14:52:34.825Z,17.30
2018-12-29T14:55:23.043Z,17.00
2018-12-29T14:58:02.500Z,18.83
2018-12-29T15:06:38.426Z,17.30
2018-12-29T15:09:26.670Z,15.60
2018-12-29T15:15:08.489Z,17.00
2018-12-29T15:17:56.812Z,17.80
2018-12-29T15:23:54.169Z,17.67
2018-12-29T15:26:42.515Z,17.23
2018-12-29T15:32:39.964Z,18.80
2018-12-29T15:38:37.369Z,16.37
2018-12-29T15:56:15.060Z,17.90
2018-12-29T15:58:56.504Z,17.60
2018-12-29T16:01:39.756Z,18.13
2018-12-29T16:04:20.893Z,19.50
2018-12-29T16:07:01.697Z,19.63
2018-12-29T16:09:42.776Z,19.07
2018-12-29T16:12:24.105Z,18.90
2018-12-29T16:15:05.681Z,20.17
2018-12-29T16:17:46.950Z,18.43
2018-12-29T16:20:28.118Z,19.07
2018-12-29T16:23:09.799Z,19.87
2018-12-29T16:25:50.621Z,19.30
2018-12-29T16:28:31.365Z,19.50
2018-12-29T16:31:12.296Z,21.00
2018-12-29T16:33:53.845Z,18.47
2018-12-29T16:36:35.422Z,17.83
2018-12-29T16:39:16.768Z,18.37
2018-12-29T16:41:58.146Z,16.77
2018-12-29T16:44:39.150Z,18.67
2018-12-29T16:47:19.884Z,17.50
2018-12-29T16:50:01.240Z,16.90
2018-12-29T16:52:42.341Z,16.30
2018-12-29T16:55:23.276Z,19.37
2018-12-29T16:58:04.026Z,16.33
2018-12-29T17:00:44.852Z,16.77
2018-12-29T17:03:25.704Z,17.43
2018-12-29T17:06:09.658Z,17.97
2018-12-29T17:08:50.420Z,17.83
2018-12-29T17:11:32.824Z,18.03
2018-12-29T17:14:13.670Z,16.57
2018-12-29T17:16:54.255Z,17.80
2018-12-29T17:19:34.940Z,17.60
2018-12-29T17:22:15.629Z,18.27
2018-12-29T17:24:56.507Z,18.23
2018-12-29T17:27:37.196Z,18.07
2018-12-29T17:30:18.448Z,17.37
2018-12-29T17:32:59.389Z,17.57
2018-12-29T17:35:38.936Z,18.17
2018-12-29T17:38:27.195Z,19.30
2018-12-29T17:47:17.162Z,19.10
2018-12-29T17:56:06.932Z,18.17
2018-12-29T17:58:55.204Z,17.27
2018-12-29T18:04:43.352Z,18.70
2018-12-29T18:07:24.645Z,20.10
2018-12-29T18:10:06.003Z,17.03
2018-12-29T18:12:46.752Z,17.73
2018-12-29T18:15:28.044Z,18.57
2018-12-29T18:18:08.674Z,20.40
2018-12-29T18:20:50.176Z,20.23
2018-12-29T18:23:30.669Z,20.23
2018-12-29T18:26:11.255Z,20.23
2018-12-29T18:28:52.022Z,20.47
2018-12-29T18:31:32.542Z,18.40
2018-12-29T18:34:11.997Z,21.30
2018-12-29T18:37:00.389Z,19.23
2018-12-29T18:39:48.704Z,19.00
2018-12-29T18:48:44.092Z,19.00
2018-12-29T18:51:32.335Z,18.23
2018-12-29T18:54:20.750Z,17.70
2018-12-29T18:57:09.240Z,18.70
2018-12-29T18:59:50.453Z,18.20
2018-12-29T19:02:31.322Z,18.00
2018-12-29T19:05:12.737Z,17.97
2018-12-29T19:07:53.374Z,18.80
2018-12-29T19:10:34.196Z,16.63
2018-12-29T19:13:15.162Z,17.33
2018-12-29T19:15:56.397Z,18.73
2018-12-29T19:18:41.457Z,18.10
2018-12-29T19:30:20.182Z,16.37
2018-12-29T19:33:10.249Z,16.73
2018-12-29T19:35:58.556Z,15.77
2018-12-29T19:38:46.902Z,15.30
2018-12-29T19:44:44.213Z,15.63
2018-12-29T19:56:34.882Z,16.17
2018-12-29T19:59:24.807Z,16.47
2018-12-29T20:05:13.148Z,14.60
2018-12-29T20:07:53.984Z,15.63
2018-12-29T20:10:34.938Z,16.70
2018-12-29T20:13:16.673Z,15.33
2018-12-29T20:15:57.225Z,15.70
2018-12-29T20:18:38.032Z,14.00
2018-12-29T20:21:17.398Z,14.60
2018-12-29T20:38:36.539Z,14.87
2018-12-29T20:41:24.772Z,14.73
2018-12-29T20:44:33.779Z,14.23
2018-12-29T20:47:22.190Z,14.60
2018-12-29T20:50:11.076Z,13.93
2018-12-29T20:53:00.507Z,14.20
2018-12-29T20:55:48.896Z,13.77
2018-12-29T21:10:26.204Z,13.07
2018-12-29T21:16:08.140Z,14.77
2018-12-29T21:27:53.871Z,12.90
2018-12-29T21:36:43.393Z,12.87
2018-12-29T21:42:39.107Z,13.60
2018-12-29T21:45:27.553Z,13.77
2018-12-29T21:48:15.951Z,15.33
2018-12-29T21:54:11.701Z,15.00
2018-12-29T22:05:49.245Z,13.17
2018-12-29T22:08:30.336Z,14.70
2018-12-29T22:11:11.127Z,12.67
2018-12-29T22:13:51.852Z,13.83
2018-12-29T22:16:32.697Z,13.57
2018-12-29T22:19:13.929Z,14.07
2018-12-29T22:21:55.128Z,14.80
2018-12-29T22:24:35.877Z,12.77
2018-12-29T22:27:17.280Z,14.40
2018-12-29T22:29:57.923Z,11.93
2018-12-29T22:32:39.131Z,13.23
2018-12-29T22:35:20.450Z,14.47
2018-12-29T22:38:00.881Z,13.07
2018-12-29T22:40:41.516Z,16.47
2018-12-29T22:43:22.214Z,13.70
2018-12-29T22:46:01.594Z,13.87
2018-12-29T22:48:50.269Z,12.30
2018-12-29T22:51:38.509Z,12.07
2018-12-29T22:54:26.898Z,11.97
2018-12-29T23:00:41.993Z,11.77
2018-12-29T23:03:30.360Z,13.68
2018-12-29T23:06:10.913Z,13.50
2018-12-29T23:08:51.613Z,11.10
2018-12-29T23:11:32.907Z,12.27
2018-12-29T23:14:15.750Z,12.87
2018-12-29T23:16:56.623Z,12.33
2018-12-29T23:19:37.667Z,11.77
2018-12-29T23:22:18.252Z,11.40
2018-12-29T23:24:59.002Z,12.00
2018-12-29T23:27:39.693Z,11.50
2018-12-29T23:30:20.737Z,11.53
2018-12-29T23:33:02.430Z,11.90
2018-12-29T23:35:43.388Z,10.70
2018-12-29T23:38:24.608Z,10.67
2018-12-29T23:41:05.104Z,11.00
2018-12-29T23:43:46.328Z,11.70
2018-12-29T23:46:27.191Z,11.80
2018-12-29T23:49:07.913Z,10.80
2018-12-29T23:51:48.631Z,9.33
2018-12-29T23:54:29.337Z,11.70
2018-12-29T23:57:10.114Z,11.30
2018-12-29T23:59:51.504Z,11.10
